Time,TemperatureF,DewpointF,PressureIn,WindDirection,WindDirectionDegrees,WindSpeedMPH,WindSpeedGustMPH,Humidity,HourlyPrecipIn,Conditions,Clouds,dailyrainin,SoftwareType,DateUTC
2013-01-13 00:01:00,22.9,21.7,30.52,WSW,244,0.0,0.0,95,0.00,,,0.00,Wunderground v.1.15,2013-01-13 08:01:00,
2013-01-13 00:11:00,22.7,21.5,30.52,WSW,244,0.0,0.0,95,0.00,,,0.00,Wunderground v.1.15,2013-01-13 08:11:00,
2013-01-13 00:21:00,22.5,21.3,30.52,WSW,244,0.0,0.0,95,0.00,,,0.00,Wunderground v.1.15,2013-01-13 08:21:00,
2013-01-13 00:31:00,22.4,20.9,30.52,WSW,244,0.0,0.0,94,0.00,,,0.00,Wunderground v.1.15,2013-01-13 08:31:00,
2013-01-13 00:41:00,22.4,20.9,30.52,WSW,244,0.0,0.0,94,0.00,,,0.00,Wunderground v.1.15,2013-01-13 08:41:00,
2013-01-13 00:51:00,22.2,20.7,30.53,WSW,244,0.0,0.0,94,0.00,,,0.00,Wunderground v.1.15,2013-01-13 08:51:00,
2013-01-13 01:01:00,21.9,20.4,30.53,WSW,244,0.0,0.0,94,0.00,,,0.00,Wunderground v.1.15,2013-01-13 09:01:00,
2013-01-13 01:11:00,21.8,20.1,30.52,WSW,244,0.0,0.0,93,0.00,,,0.00,Wunderground v.1.15,2013-01-13 09:11:00,
2013-01-13 01:21:00,21.8,20.3,30.53,WSW,244,0.0,0.0,94,0.00,,,0.00,Wunderground v.1.15,2013-01-13 09:21:00,
2013-01-13 01:31:00,21.8,20.3,30.53,WSW,244,0.0,0.0,94,0.00,,,0.00,Wunderground v.1.15,2013-01-13 09:31:00,
2013-01-13 01:36:00,21.8,20.3,30.52,WSW,244,0.0,0.0,94,0.00,,,0.00,Wunderground v.1.15,2013-01-13 09:36:00,
2013-01-13 01:46:00,21.8,20.3,30.52,WSW,244,0.0,0.0,94,0.00,,,0.00,Wunderground v.1.15,2013-01-13 09:46:00,
2013-01-13 01:51:00,21.6,20.1,30.53,WSW,244,0.0,0.0,94,0.00,,,0.00,Wunderground v.1.15,2013-01-13 09:51:00,
2013-01-13 01:56:00,21.6,20.1,30.53,WSW,244,0.0,0.0,94,0.00,,,0.00,Wunderground v.1.15,2013-01-13 09:56:00,
2013-01-13 02:01:00,21.4,19.9,30.53,WSW,244,0.0,0.0,94,0.00,,,0.00,Wunderground v.1.15,2013-01-13 10:01:00,
2013-01-13 02:11:00,21.3,19.6,30.53,WSW,244,0.0,0.0,93,0.00,,,0.00,Wunderground v.1.15,2013-01-13 10:11:00,
2013-01-13 02:21:00,21.3,19.8,30.53,WSW,244,0.0,0.0,94,0.00,,,0.00,Wunderground v.1.15,2013-01-13 10:21:00,
2013-01-13 02:31:00,21.1,19.6,30.53,WSW,244,0.0,0.0,94,0.00,,,0.00,Wunderground v.1.15,2013-01-13 10:31:00,
2013-01-13 02:41:00,21.1,19.4,30.53,WSW,244,0.0,0.0,93,0.00,,,0.00,Wunderground v.1.15,2013-01-13 10:41:00,
2013-01-13 02:51:00,21.0,19.5,30.54,WSW,244,0.0,0.0,94,0.00,,,0.00,Wunderground v.1.15,2013-01-13 10:51:00,
2013-01-13 02:56:00,21.0,19.3,30.54,WSW,244,0.0,0.0,93,0.00,,,0.00,Wunderground v.1.15,2013-01-13 10:56:00,
2013-01-13 03:11:00,20.6,18.9,30.54,WSW,244,0.0,0.0,93,0.00,,,0.00,Wunderground v.1.15,2013-01-13 11:11:00,
2013-01-13 03:21:00,20.6,18.9,30.54,WSW,244,0.0,0.0,93,0.00,,,0.00,Wunderground v.1.15,2013-01-13 11:21:00,
2013-01-13 03:26:00,20.6,18.9,30.54,WSW,244,0.0,0.0,93,0.00,,,0.00,Wunderground v.1.15,2013-01-13 11:26:00,
2013-01-13 03:36:00,20.5,18.8,30.54,WSW,244,0.0,0.0,93,0.00,,,0.00,Wunderground v.1.15,2013-01-13 11:36:00,
2013-01-13 03:46:00,20.6,18.9,30.54,WSW,244,0.0,0.0,93,0.00,,,0.00,Wunderground v.1.15,2013-01-13 11:46:00,
2013-01-13 03:56:00,20.6,19.1,30.53,WSW,244,0.0,0.0,94,0.00,,,0.00,Wunderground v.1.15,2013-01-13 11:56:00,
2013-01-13 04:11:00,20.8,19.3,30.52,WSW,244,0.0,0.0,94,0.00,,,0.00,Wunderground v.1.15,2013-01-13 12:11:00,
2013-01-13 04:21:00,20.6,18.9,30.53,WSW,244,0.0,0.0,93,0.00,,,0.00,Wunderground v.1.15,2013-01-13 12:21:00,
2013-01-13 04:31:00,20.6,18.9,30.53,WSW,244,0.0,0.0,93,0.00,,,0.00,Wunderground v.1.15,2013-01-13 12:31:00,
2013-01-13 04:36:00,20.6,18.9,30.52,WSW,244,0.0,0.0,93,0.00,,,0.00,Wunderground v.1.15,2013-01-13 12:36:00,
2013-01-13 04:46:00,20.5,18.8,30.52,WSW,244,0.0,0.0,93,0.00,,,0.00,Wunderground v.1.15,2013-01-13 12:46:00,
2013-01-13 04:56:00,20.5,18.8,30.53,WSW,244,0.0,0.0,93,0.00,,,0.00,Wunderground v.1.15,2013-01-13 12:56:00,
2013-01-13 05:11:00,20.3,18.6,30.53,WSW,244,0.0,0.0,93,0.00,,,0.00,Wunderground v.1.15,2013-01-13 13:11:00,
2013-01-13 05:21:00,20.3,18.6,30.53,WSW,244,0.0,0.0,93,0.00,,,0.00,Wunderground v.1.15,2013-01-13 13:21:00,
2013-01-13 05:26:00,20.2,18.5,30.53,WSW,244,0.0,0.0,93,0.00,,,0.00,Wunderground v.1.15,2013-01-13 13:26:00,
2013-01-13 05:36:00,20.2,18.5,30.53,WSW,244,0.0,0.0,93,0.00,,,0.00,Wunderground v.1.15,2013-01-13 13:36:00,
2013-01-13 05:46:00,20.2,18.5,30.53,WSW,244,0.0,0.0,93,0.00,,,0.00,Wunderground v.1.15,2013-01-13 13:46:00,
2013-01-13 05:56:00,20.0,18.3,30.53,WSW,244,0.0,0.0,93,0.00,,,0.00,Wunderground v.1.15,2013-01-13 13:56:00,
2013-01-13 06:11:00,20.0,18.3,30.53,WSW,244,0.0,0.0,93,0.00,,,0.00,Wunderground v.1.15,2013-01-13 14:11:00,
2013-01-13 06:21:00,20.0,18.3,30.54,WSW,244,0.0,0.0,93,0.00,,,0.00,Wunderground v.1.15,2013-01-13 14:21:00,
2013-01-13 06:31:00,19.9,18.2,30.54,WSW,244,0.0,0.0,93,0.00,,,0.00,Wunderground v.1.15,2013-01-13 14:31:00,
2013-01-13 06:41:00,19.9,18.2,30.55,WSW,244,0.0,0.0,93,0.00,,,0.00,Wunderground v.1.15,2013-01-13 14:41:00,
2013-01-13 06:46:00,19.9,18.2,30.55,WSW,244,0.0,0.0,93,0.00,,,0.00,Wunderground v.1.15,2013-01-13 14:46:00,
2013-01-13 06:51:00,19.9,18.2,30.54,WSW,244,0.0,0.0,93,0.00,,,0.00,Wunderground v.1.15,2013-01-13 14:51:00,
2013-01-13 07:01:00,20.0,18.3,30.54,WSW,244,0.0,0.0,93,0.00,,,0.00,Wunderground v.1.15,2013-01-13 15:01:00,
2013-01-13 07:11:00,20.0,18.3,30.55,WSW,244,0.0,0.0,93,0.00,,,0.00,Wunderground v.1.15,2013-01-13 15:11:00,
2013-01-13 07:21:00,20.0,18.3,30.56,WSW,244,0.0,0.0,93,0.00,,,0.00,Wunderground v.1.15,2013-01-13 15:21:00,
2013-01-13 07:31:00,19.9,18.2,30.56,WSW,244,0.0,0.0,93,0.00,,,0.00,Wunderground v.1.15,2013-01-13 15:31:00,
2013-01-13 07:41:00,19.7,18.0,30.56,WSW,244,0.0,0.0,93,0.00,,,0.00,Wunderground v.1.15,2013-01-13 15:41:00,
2013-01-13 07:46:00,19.7,17.8,30.56,WSW,244,0.0,0.0,92,0.00,,,0.00,Wunderground v.1.15,2013-01-13 15:46:00,
2013-01-13 07:56:00,19.5,17.8,30.56,WSW,244,0.0,0.0,93,0.00,,,0.00,Wunderground v.1.15,2013-01-13 15:56:00,
2013-01-13 08:06:00,19.7,18.0,30.55,WSW,244,0.0,0.0,93,0.00,,,0.00,Wunderground v.1.15,2013-01-13 16:06:00,
2013-01-13 08:16:00,19.7,18.0,30.55,WSW,244,0.0,0.0,93,0.00,,,0.00,Wunderground v.1.15,2013-01-13 16:16:00,
2013-01-13 08:26:00,19.7,18.0,30.55,WSW,244,0.0,0.0,93,0.00,,,0.00,Wunderground v.1.15,2013-01-13 16:26:00,
2013-01-13 08:31:00,19.9,18.2,30.55,WSW,244,0.0,0.0,93,0.00,,,0.00,Wunderground v.1.15,2013-01-13 16:31:00,
2013-01-13 08:36:00,20.0,18.3,30.55,WSW,244,0.0,0.0,93,0.00,,,0.00,Wunderground v.1.15,2013-01-13 16:36:00,
2013-01-13 08:46:00,20.2,18.5,30.55,WSW,244,0.0,0.0,93,0.00,,,0.00,Wunderground v.1.15,2013-01-13 16:46:00,
2013-01-13 08:56:00,20.6,19.1,30.55,WSW,244,0.0,0.0,94,0.00,,,0.00,Wunderground v.1.15,2013-01-13 16:56:00,
2013-01-13 09:06:00,21.3,20.1,30.55,WSW,244,0.0,0.0,95,0.00,,,0.00,Wunderground v.1.15,2013-01-13 17:06:00,
2013-01-13 09:16:00,21.9,20.9,30.55,WSW,244,0.0,0.0,96,0.00,,,0.00,Wunderground v.1.15,2013-01-13 17:16:00,
2013-01-13 09:26:00,22.4,21.4,30.55,WSW,244,0.0,0.0,96,0.00,,,0.00,Wunderground v.1.15,2013-01-13 17:26:00,
2013-01-13 09:36:00,23.0,22.0,30.55,WSW,244,0.0,0.0,96,0.00,,,0.00,Wunderground v.1.15,2013-01-13 17:36:00,
2013-01-13 09:41:00,23.2,22.2,30.55,WSW,244,0.0,0.0,96,0.00,,,0.00,Wunderground v.1.15,2013-01-13 17:41:00,
2013-01-13 09:46:00,23.5,22.5,30.56,WSW,244,0.0,0.0,96,0.00,,,0.00,Wunderground v.1.15,2013-01-13 17:46:00,
2013-01-13 09:51:00,23.6,22.6,30.56,WSW,244,0.0,0.0,96,0.00,,,0.00,Wunderground v.1.15,2013-01-13 17:51:00,
2013-01-13 10:01:00,23.9,22.9,30.56,WSW,244,0.0,0.0,96,0.00,,,0.00,Wunderground v.1.15,2013-01-13 18:01:00,
2013-01-13 10:11:00,24.2,23.2,30.56,WSW,244,0.0,0.0,96,0.00,,,0.00,Wunderground v.1.15,2013-01-13 18:11:00,
2013-01-13 10:21:00,24.7,23.7,30.56,WSW,244,0.0,0.0,96,0.00,,,0.00,Wunderground v.1.15,2013-01-13 18:21:00,
2013-01-13 10:31:00,25.1,24.1,30.56,WSW,244,0.0,0.0,96,0.00,,,0.00,Wunderground v.1.15,2013-01-13 18:31:00,
2013-01-13 10:36:00,25.4,24.7,30.56,WSW,244,0.0,0.0,97,0.00,,,0.00,Wunderground v.1.15,2013-01-13 18:36:00,
2013-01-13 10:46:00,26.0,25.3,30.56,WSW,244,0.0,0.0,97,0.00,,,0.00,Wunderground v.1.15,2013-01-13 18:46:00,
2013-01-13 10:56:00,26.6,25.9,30.56,WSW,244,0.0,0.0,97,0.00,,,0.00,Wunderground v.1.15,2013-01-13 18:56:00,
2013-01-13 11:11:00,27.3,26.6,30.56,WSW,244,0.0,0.0,97,0.00,,,0.00,Wunderground v.1.15,2013-01-13 19:11:00,
2013-01-13 11:21:00,27.6,26.9,30.55,WSW,244,0.0,0.0,97,0.00,,,0.00,Wunderground v.1.15,2013-01-13 19:21:00,
2013-01-13 11:26:00,27.8,27.1,30.55,WSW,244,0.0,0.0,97,0.00,,,0.00,Wunderground v.1.15,2013-01-13 19:26:00,
2013-01-13 11:36:00,28.1,27.4,30.54,WSW,244,0.0,0.0,97,0.00,,,0.00,Wunderground v.1.15,2013-01-13 19:36:00,
2013-01-13 11:46:00,28.4,27.7,30.54,WSW,244,0.0,0.0,97,0.00,,,0.00,Wunderground v.1.15,2013-01-13 19:46:00,
2013-01-13 11:51:00,28.5,27.8,30.54,WSW,244,0.0,0.0,97,0.00,,,0.00,Wunderground v.1.15,2013-01-13 19:51:00,
2013-01-13 12:01:00,29.4,28.7,30.54,WSW,243,0.0,0.0,97,0.00,,,0.00,Wunderground v.1.15,2013-01-13 20:01:00,
2013-01-13 12:11:00,30.0,29.0,30.54,WSW,241,0.0,0.0,96,0.00,,,0.00,Wunderground v.1.15,2013-01-13 20:11:00,
2013-01-13 12:21:00,30.6,29.3,30.54,WSW,241,0.0,0.0,95,0.00,,,0.00,Wunderground v.1.15,2013-01-13 20:21:00,
2013-01-13 12:31:00,30.9,29.4,30.54,WSW,241,0.0,0.0,94,0.00,,,0.00,Wunderground v.1.15,2013-01-13 20:31:00,
2013-01-13 12:36:00,30.9,29.1,30.54,WSW,241,0.0,0.0,93,0.00,,,0.00,Wunderground v.1.15,2013-01-13 20:36:00,
2013-01-13 12:46:00,31.0,28.7,30.54,WSW,240,0.0,0.0,91,0.00,,,0.00,Wunderground v.1.15,2013-01-13 20:46:00,
2013-01-13 12:51:00,31.2,28.9,30.53,WSW,246,0.0,0.0,91,0.00,,,0.00,Wunderground v.1.15,2013-01-13 20:51:00,
2013-01-13 13:01:00,31.3,28.2,30.53,WSW,246,0.0,0.0,88,0.00,,,0.00,Wunderground v.1.15,2013-01-13 21:01:00,
2013-01-13 13:11:00,31.6,28.5,30.53,WSW,246,0.0,0.0,88,0.00,,,0.00,Wunderground v.1.15,2013-01-13 21:11:00,
2013-01-13 13:21:00,31.9,28.2,30.52,SSW,210,0.0,0.0,86,0.00,,,0.00,Wunderground v.1.15,2013-01-13 21:21:00,
2013-01-13 13:31:00,32.4,27.8,30.52,SSW,205,0.0,0.0,83,0.00,,,0.00,Wunderground v.1.15,2013-01-13 21:31:00,
2013-01-13 13:36:00,32.5,28.2,30.53,SW,223,0.0,0.0,84,0.00,,,0.00,Wunderground v.1.15,2013-01-13 21:36:00,
2013-01-13 13:41:00,32.7,28.4,30.53,SW,223,0.0,0.0,84,0.00,,,0.00,Wunderground v.1.15,2013-01-13 21:41:00,
2013-01-13 13:46:00,32.8,28.2,30.53,SW,223,0.0,0.0,83,0.00,,,0.00,Wunderground v.1.15,2013-01-13 21:46:00,
2013-01-13 13:51:00,32.9,27.4,30.53,SW,223,0.0,0.0,80,0.00,,,0.00,Wunderground v.1.15,2013-01-13 21:51:00,
2013-01-13 14:01:00,33.1,27.6,30.53,SW,224,0.0,0.0,80,0.00,,,0.00,Wunderground v.1.15,2013-01-13 22:01:00,
2013-01-13 14:11:00,33.1,27.3,30.53,SW,224,0.0,0.0,79,0.00,,,0.00,Wunderground v.1.15,2013-01-13 22:11:00,
2013-01-13 14:21:00,33.2,27.4,30.53,SW,224,0.0,0.0,79,0.00,,,0.00,Wunderground v.1.15,2013-01-13 22:21:00,
2013-01-13 14:26:00,33.4,28.2,30.53,SW,224,0.0,0.0,81,0.00,,,0.00,Wunderground v.1.15,2013-01-13 22:26:00,
2013-01-13 14:36:00,33.4,27.6,30.53,SW,224,0.0,0.0,79,0.00,,,0.00,Wunderground v.1.15,2013-01-13 22:36:00,
2013-01-13 14:46:00,33.4,27.3,30.53,SW,224,0.0,0.0,78,0.00,,,0.00,Wunderground v.1.15,2013-01-13 22:46:00,
2013-01-13 14:56:00,33.5,27.7,30.53,SW,224,0.0,0.0,79,0.00,,,0.00,Wunderground v.1.15,2013-01-13 22:56:00,
2013-01-13 15:01:00,33.5,27.1,30.53,SW,224,0.0,0.0,77,0.00,,,0.00,Wunderground v.1.15,2013-01-13 23:01:00,
2013-01-13 15:11:00,33.5,29.2,30.53,SW,224,0.0,0.0,84,0.00,,,0.00,Wunderground v.1.15,2013-01-13 23:11:00,
2013-01-13 15:21:00,33.5,29.5,30.53,SW,224,0.0,0.0,85,0.00,,,0.00,Wunderground v.1.15,2013-01-13 23:21:00,
2013-01-13 15:31:00,33.4,29.7,30.53,SW,224,0.0,0.0,86,0.00,,,0.00,Wunderground v.1.15,2013-01-13 23:31:00,
2013-01-13 15:36:00,33.2,29.5,30.53,SW,224,0.0,0.0,86,0.00,,,0.00,Wunderground v.1.15,2013-01-13 23:36:00,
2013-01-13 15:46:00,33.1,28.8,30.53,SW,224,0.0,0.0,84,0.00,,,0.00,Wunderground v.1.15,2013-01-13 23:46:00,
2013-01-13 15:56:00,32.8,28.5,30.53,SW,224,0.0,0.0,84,0.00,,,0.00,Wunderground v.1.15,2013-01-13 23:56:00,
2013-01-13 16:01:00,32.7,29.0,30.53,SW,224,0.0,0.0,86,0.00,,,0.00,Wunderground v.1.15,2013-01-14 00:01:00,
2013-01-13 16:11:00,32.2,28.5,30.53,SW,224,0.0,0.0,86,0.00,,,0.00,Wunderground v.1.15,2013-01-14 00:11:00,
2013-01-13 16:16:00,32.1,28.7,30.53,SW,224,0.0,0.0,87,0.00,,,0.00,Wunderground v.1.15,2013-01-14 00:16:00,
2013-01-13 16:21:00,31.9,28.5,30.54,SW,224,0.0,0.0,87,0.00,,,0.00,Wunderground v.1.15,2013-01-14 00:21:00,
2013-01-13 16:31:00,31.6,28.7,30.54,SW,224,0.0,0.0,89,0.00,,,0.00,Wunderground v.1.15,2013-01-14 00:31:00,
2013-01-13 16:36:00,31.5,28.9,30.53,SW,224,0.0,0.0,90,0.00,,,0.00,Wunderground v.1.15,2013-01-14 00:36:00,
2013-01-13 16:46:00,31.2,28.6,30.53,SW,224,0.0,0.0,90,0.00,,,0.00,Wunderground v.1.15,2013-01-14 00:46:00,
2013-01-13 16:51:00,30.9,28.3,30.53,SW,224,0.0,0.0,90,0.00,,,0.00,Wunderground v.1.15,2013-01-14 00:51:00,
2013-01-13 16:56:00,30.7,28.4,30.53,SW,224,0.0,0.0,91,0.00,,,0.00,Wunderground v.1.15,2013-01-14 00:56:00,
2013-01-13 17:11:00,30.3,28.0,30.53,SW,224,0.0,0.0,91,0.00,,,0.00,Wunderground v.1.15,2013-01-14 01:11:00,
2013-01-13 17:21:00,30.0,28.0,30.54,SW,224,0.0,0.0,92,0.00,,,0.00,Wunderground v.1.15,2013-01-14 01:21:00,
2013-01-13 17:26:00,29.7,27.7,30.54,SW,224,0.0,0.0,92,0.00,,,0.00,Wunderground v.1.15,2013-01-14 01:26:00,
2013-01-13 17:36:00,29.4,27.6,30.55,SW,224,0.0,0.0,93,0.00,,,0.00,Wunderground v.1.15,2013-01-14 01:36:00,
2013-01-13 17:46:00,29.1,27.3,30.55,SW,224,0.0,0.0,93,0.00,,,0.00,Wunderground v.1.15,2013-01-14 01:46:00,
2013-01-13 17:56:00,28.8,27.0,30.55,SW,224,0.0,0.0,93,0.00,,,0.00,Wunderground v.1.15,2013-01-14 01:56:00,
2013-01-13 18:11:00,28.5,26.7,30.55,SW,224,0.0,0.0,93,0.00,,,0.00,Wunderground v.1.15,2013-01-14 02:11:00,
2013-01-13 18:21:00,28.2,26.4,30.55,SW,224,0.0,0.0,93,0.00,,,0.00,Wunderground v.1.15,2013-01-14 02:21:00,
2013-01-13 18:31:00,28.1,26.6,30.55,SW,224,0.0,0.0,94,0.00,,,0.00,Wunderground v.1.15,2013-01-14 02:31:00,
2013-01-13 18:41:00,27.9,26.4,30.54,SW,224,0.0,0.0,94,0.00,,,0.00,Wunderground v.1.15,2013-01-14 02:41:00,
2013-01-13 18:51:00,27.9,26.7,30.53,SW,224,0.0,0.0,95,0.00,,,0.00,Wunderground v.1.15,2013-01-14 02:51:00,
2013-01-13 19:01:00,27.9,26.7,30.53,SW,224,0.0,0.0,95,0.00,,,0.00,Wunderground v.1.15,2013-01-14 03:01:00,
2013-01-13 19:11:00,27.9,26.7,30.53,SW,224,0.0,0.0,95,0.00,,,0.00,Wunderground v.1.15,2013-01-14 03:11:00,
2013-01-13 19:16:00,27.9,26.9,30.53,SW,224,0.0,0.0,96,0.00,,,0.00,Wunderground v.1.15,2013-01-14 03:16:00,
2013-01-13 19:26:00,27.9,26.9,30.54,SW,224,0.0,0.0,96,0.00,,,0.00,Wunderground v.1.15,2013-01-14 03:26:00,
2013-01-13 19:36:00,27.9,26.9,30.55,SW,224,0.0,0.0,96,0.00,,,0.00,Wunderground v.1.15,2013-01-14 03:36:00,
2013-01-13 19:41:00,27.9,27.2,30.55,SW,224,0.0,0.0,97,0.00,,,0.00,Wunderground v.1.15,2013-01-14 03:41:00,
2013-01-13 19:51:00,28.1,27.4,30.55,SW,224,0.0,0.0,97,0.00,,,0.00,Wunderground v.1.15,2013-01-14 03:51:00,
2013-01-13 19:56:00,28.1,27.4,30.55,SW,224,0.0,0.0,97,0.00,,,0.00,Wunderground v.1.15,2013-01-14 03:56:00,
2013-01-13 20:11:00,28.2,27.5,30.56,SW,224,0.0,0.0,97,0.00,,,0.00,Wunderground v.1.15,2013-01-14 04:11:00,
2013-01-13 20:16:00,28.2,27.5,30.56,SW,224,0.0,0.0,97,0.00,,,0.00,Wunderground v.1.15,2013-01-14 04:16:00,
2013-01-13 20:21:00,28.4,27.7,30.56,SW,224,0.0,0.0,97,0.00,,,0.00,Wunderground v.1.15,2013-01-14 04:21:00,
2013-01-13 20:31:00,28.4,27.7,30.56,SW,224,0.0,0.0,97,0.00,,,0.00,Wunderground v.1.15,2013-01-14 04:31:00,
2013-01-13 20:36:00,28.5,27.8,30.56,SW,224,0.0,0.0,97,0.00,,,0.00,Wunderground v.1.15,2013-01-14 04:36:00,
2013-01-13 20:46:00,28.5,27.8,30.56,SW,224,0.0,0.0,97,0.00,,,0.00,Wunderground v.1.15,2013-01-14 04:46:00,
2013-01-13 20:56:00,28.7,28.0,30.55,SW,224,0.0,0.0,97,0.00,,,0.00,Wunderground v.1.15,2013-01-14 04:56:00,
2013-01-13 21:01:00,28.8,28.1,30.55,SW,224,0.0,0.0,97,0.00,,,0.00,Wunderground v.1.15,2013-01-14 05:01:00,
2013-01-13 21:11:00,28.8,28.1,30.56,SW,224,0.0,0.0,97,0.00,,,0.00,Wunderground v.1.15,2013-01-14 05:11:00,
2013-01-13 21:21:00,29.0,28.3,30.55,SW,224,0.0,0.0,97,0.00,,,0.00,Wunderground v.1.15,2013-01-14 05:21:00,
2013-01-13 21:26:00,29.0,28.3,30.55,SW,224,0.0,0.0,97,0.00,,,0.00,Wunderground v.1.15,2013-01-14 05:26:00,
2013-01-13 21:31:00,29.0,28.3,30.56,SW,224,0.0,0.0,97,0.00,,,0.00,Wunderground v.1.15,2013-01-14 05:31:00,
2013-01-13 21:41:00,29.1,28.4,30.56,SW,224,0.0,0.0,97,0.00,,,0.00,Wunderground v.1.15,2013-01-14 05:41:00,
2013-01-13 21:51:00,29.1,28.4,30.56,SW,224,0.0,0.0,97,0.00,,,0.00,Wunderground v.1.15,2013-01-14 05:51:00,
2013-01-13 22:01:00,29.1,28.4,30.56,SW,224,0.0,0.0,97,0.00,,,0.00,Wunderground v.1.15,2013-01-14 06:01:00,
2013-01-13 22:06:00,29.1,28.4,30.57,SW,224,0.0,0.0,97,0.00,,,0.00,Wunderground v.1.15,2013-01-14 06:06:00,
2013-01-13 22:16:00,29.3,28.6,30.57,SW,224,0.0,0.0,97,0.00,,,0.00,Wunderground v.1.15,2013-01-14 06:16:00,
2013-01-13 22:26:00,29.3,28.6,30.57,SW,224,0.0,0.0,97,0.00,,,0.00,Wunderground v.1.15,2013-01-14 06:26:00,
2013-01-13 22:31:00,29.3,28.6,30.57,SW,224,0.0,0.0,97,0.00,,,0.00,Wunderground v.1.15,2013-01-14 06:31:00,
2013-01-13 22:41:00,29.3,28.6,30.57,SW,224,0.0,0.0,97,0.00,,,0.00,Wunderground v.1.15,2013-01-14 06:41:00,
2013-01-13 22:51:00,29.4,28.7,30.57,SW,224,0.0,0.0,97,0.00,,,0.00,Wunderground v.1.15,2013-01-14 06:51:00,
2013-01-13 23:01:00,29.4,28.7,30.57,SW,224,0.0,0.0,97,0.00,,,0.00,Wunderground v.1.15,2013-01-14 07:01:00,
2013-01-13 23:11:00,29.4,28.7,30.57,SW,224,0.0,0.0,97,0.00,,,0.00,Wunderground v.1.15,2013-01-14 07:11:00,
2013-01-13 23:16:00,29.4,28.7,30.57,SW,224,0.0,0.0,97,0.00,,,0.00,Wunderground v.1.15,2013-01-14 07:16:00,
2013-01-13 23:26:00,29.4,28.7,30.57,SW,224,0.0,0.0,97,0.00,,,0.00,Wunderground v.1.15,2013-01-14 07:26:00,
2013-01-13 23:31:00,29.4,28.7,30.57,SW,224,0.0,0.0,97,0.00,,,0.00,Wunderground v.1.15,2013-01-14 07:31:00,
2013-01-13 23:41:00,29.4,28.7,30.56,SW,224,0.0,0.0,97,0.00,,,0.00,Wunderground v.1.15,2013-01-14 07:41:00,
2013-01-13 23:46:00,29.4,28.7,30.56,SW,224,0.0,0.0,97,0.00,,,0.00,Wunderground v.1.15,2013-01-14 07:46:00,
2013-01-13 23:56:00,29.5,28.8,30.55,SW,224,0.0,0.0,97,0.00,,,0.00,Wunderground v.1.15,2013-01-14 07:56:00,